createdAt,value
2023-03-01T00:02:18.507Z,63.90
2023-03-01T00:04:46.050Z,63.20
2023-03-01T00:07:14.637Z,63.30
2023-03-01T00:09:41.822Z,63.50
2023-03-01T00:12:09.052Z,63.60
2023-03-01T00:14:36.926Z,63.70
2023-03-01T00:17:04.199Z,63.70
2023-03-01T00:19:33.434Z,63.50
2023-03-01T00:22:00.641Z,63.80
2023-03-01T00:24:29.225Z,63.60
2023-03-01T00:26:56.824Z,63.50
2023-03-01T00:29:24.869Z,63.70
2023-03-01T00:31:52.252Z,63.70
2023-03-01T00:34:19.635Z,63.60
2023-03-01T00:36:46.846Z,63.30
2023-03-01T00:39:15.592Z,62.90
2023-03-01T00:41:44.377Z,62.90
2023-03-01T00:44:11.910Z,62.80
2023-03-01T00:46:39.539Z,62.80
2023-03-01T00:49:06.854Z,62.80
2023-03-01T00:51:34.340Z,63.10
2023-03-01T00:54:03.175Z,62.90
2023-03-01T00:56:31.884Z,62.80
2023-03-01T00:59:00.983Z,63.00
2023-03-01T01:01:32.265Z,63.10
2023-03-01T01:04:01.747Z,63.30
2023-03-01T01:06:31.812Z,63.20
2023-03-01T01:08:59.380Z,63.30
2023-03-01T01:11:28.564Z,63.60
2023-03-01T01:13:56.603Z,64.00
2023-03-01T01:16:27.464Z,64.20
2023-03-01T01:18:54.866Z,64.40
2023-03-01T01:21:23.978Z,64.50
2023-03-01T01:23:51.749Z,64.60
2023-03-01T01:26:20.862Z,64.50
2023-03-01T01:28:48.192Z,64.40
2023-03-01T01:31:16.411Z,64.30
2023-03-01T01:33:45.577Z,64.20
2023-03-01T01:36:13.316Z,63.40
2023-03-01T01:38:40.585Z,63.20
2023-03-01T01:41:08.055Z,64.00
2023-03-01T01:43:37.506Z,64.30
2023-03-01T01:46:07.887Z,64.80
2023-03-01T01:48:41.910Z,64.90
2023-03-01T01:51:14.266Z,64.70
2023-03-01T01:53:44.308Z,64.80
2023-03-01T01:56:14.557Z,64.80
2023-03-01T01:58:44.438Z,65.10
2023-03-01T02:01:12.150Z,65.00
2023-03-01T02:03:44.032Z,64.60
2023-03-01T02:06:20.132Z,64.30
2023-03-01T02:08:50.226Z,64.10
2023-03-01T02:11:19.226Z,64.10
2023-03-01T02:13:50.080Z,64.40
2023-03-01T02:16:18.407Z,64.20
2023-03-01T02:18:46.276Z,64.70
2023-03-01T02:21:30.426Z,64.80
2023-03-01T02:24:01.013Z,64.90
2023-03-01T02:26:36.137Z,65.20
2023-03-01T02:29:06.564Z,65.60
2023-03-01T02:31:43.181Z,65.80
2023-03-01T02:34:15.217Z,65.90
2023-03-01T02:36:46.561Z,66.40
2023-03-01T02:39:19.646Z,66.60
2023-03-01T02:41:50.364Z,66.70
2023-03-01T02:44:19.294Z,66.90
2023-03-01T02:46:49.162Z,66.70
2023-03-01T02:49:22.413Z,66.60
2023-03-01T02:52:02.087Z,66.40
2023-03-01T02:54:34.742Z,66.20
2023-03-01T02:57:02.914Z,66.00
2023-03-01T02:59:40.207Z,66.10
2023-03-01T03:02:08.687Z,66.10
2023-03-01T03:04:36.022Z,65.90
2023-03-01T03:07:03.297Z,66.20
2023-03-01T03:09:30.497Z,66.40
2023-03-01T03:11:57.689Z,66.50
2023-03-01T03:14:25.434Z,66.90
2023-03-01T03:16:54.024Z,66.80
2023-03-01T03:19:21.342Z,67.20
2023-03-01T03:21:48.605Z,67.50
2023-03-01T03:24:15.816Z,67.50
2023-03-01T03:26:43.004Z,67.30
2023-03-01T03:29:10.250Z,67.40
2023-03-01T03:31:37.694Z,67.80
2023-03-01T03:34:06.294Z,67.60
2023-03-01T03:36:33.612Z,67.10
2023-03-01T03:39:00.788Z,66.70
2023-03-01T03:41:27.994Z,66.50
2023-03-01T03:43:55.172Z,66.60
2023-03-01T03:46:22.365Z,66.30
2023-03-01T03:48:50.337Z,66.00
2023-03-01T03:51:19.791Z,66.10
2023-03-01T03:53:47.083Z,66.30
2023-03-01T03:56:14.563Z,66.50
2023-03-01T03:58:41.902Z,66.50
2023-03-01T04:01:09.130Z,66.30
2023-03-01T04:03:36.395Z,66.60
2023-03-01T04:06:04.970Z,66.00
2023-03-01T04:08:33.848Z,66.10
2023-03-01T04:11:22.877Z,66.30
2023-03-01T04:13:50.410Z,66.60
2023-03-01T04:16:18.664Z,67.00
2023-03-01T04:18:47.297Z,67.10
2023-03-01T04:21:15.021Z,66.80
2023-03-01T04:23:43.571Z,66.60
2023-03-01T04:26:10.799Z,66.90
2023-03-01T04:28:41.310Z,66.80
2023-03-01T04:31:18.297Z,66.60
2023-03-01T04:33:47.552Z,66.80
2023-03-01T04:36:16.324Z,66.70
2023-03-01T04:38:49.228Z,67.00
2023-03-01T04:41:17.822Z,67.10
2023-03-01T04:43:45.472Z,66.80
2023-03-01T04:46:15.666Z,66.80
2023-03-01T04:48:45.278Z,67.00
2023-03-01T04:51:14.448Z,67.30
2023-03-01T04:53:42.808Z,67.60
2023-03-01T04:56:11.786Z,67.50
2023-03-01T04:58:39.061Z,67.80
2023-03-01T05:01:16.397Z,67.80
2023-03-01T05:03:44.701Z,67.80
2023-03-01T05:06:12.579Z,68.00
2023-03-01T05:08:39.879Z,67.60
2023-03-01T05:11:09.752Z,67.80
2023-03-01T05:13:39.728Z,67.50
2023-03-01T05:16:12.094Z,67.50
2023-03-01T05:18:40.897Z,67.80
2023-03-01T05:21:10.498Z,67.90
2023-03-01T05:23:38.183Z,67.90
2023-03-01T05:26:09.487Z,68.20
2023-03-01T05:28:40.588Z,68.50
2023-03-01T05:31:10.575Z,68.70
2023-03-01T05:33:38.914Z,68.90
2023-03-01T05:36:07.076Z,69.10
2023-03-01T05:38:34.480Z,69.50
2023-03-01T05:41:01.744Z,69.40
2023-03-01T05:43:34.746Z,69.40
2023-03-01T05:46:03.411Z,69.00
2023-03-01T05:48:30.637Z,69.10
2023-03-01T05:51:01.128Z,68.80
2023-03-01T05:53:28.406Z,68.80
2023-03-01T05:55:55.598Z,69.10
2023-03-01T05:58:22.874Z,69.30
2023-03-01T06:00:50.752Z,69.50
2023-03-01T06:03:19.379Z,69.30
2023-03-01T06:05:46.918Z,69.20
2023-03-01T06:08:14.727Z,69.10
2023-03-01T06:10:42.012Z,68.70
2023-03-01T06:13:09.443Z,68.50
2023-03-01T06:15:36.734Z,68.20
2023-03-01T06:18:04.212Z,68.80
2023-03-01T06:20:32.767Z,69.20
2023-03-01T06:23:00.954Z,69.00
2023-03-01T06:25:28.847Z,69.20
2023-03-01T06:27:56.493Z,68.90
2023-03-01T06:30:25.589Z,69.20
2023-03-01T06:32:53.516Z,69.30
2023-03-01T06:35:21.183Z,69.00
2023-03-01T06:37:49.893Z,69.00
2023-03-01T06:40:17.654Z,69.00
2023-03-01T06:42:50.066Z,68.80
2023-03-01T06:45:18.783Z,68.40
2023-03-01T06:47:46.202Z,68.40
2023-03-01T06:50:14.907Z,68.40
2023-03-01T06:52:42.616Z,68.20
2023-03-01T06:55:11.712Z,68.70
2023-03-01T06:57:39.038Z,68.30
2023-03-01T07:00:08.072Z,68.30
2023-03-01T07:02:35.355Z,68.30
2023-03-01T07:05:02.596Z,68.80
2023-03-01T07:07:29.816Z,69.00
2023-03-01T07:09:57.039Z,69.30
2023-03-01T07:12:25.604Z,69.20
2023-03-01T07:14:52.787Z,68.80
2023-03-01T07:17:20.026Z,67.90
2023-03-01T07:19:47.242Z,67.30
2023-03-01T07:22:14.584Z,68.00
2023-03-01T07:24:42.222Z,68.50
2023-03-01T07:27:09.510Z,68.90
2023-03-01T07:29:38.101Z,68.80
2023-03-01T07:32:06.345Z,68.40
2023-03-01T07:34:33.711Z,68.30
2023-03-01T07:37:00.952Z,68.10
2023-03-01T07:39:28.382Z,67.90
2023-03-01T07:41:55.609Z,67.80
2023-03-01T07:44:23.637Z,67.40
2023-03-01T07:46:57.088Z,67.10
2023-03-01T07:49:24.449Z,66.70
2023-03-01T07:51:51.659Z,66.10
2023-03-01T07:54:19.088Z,65.40
2023-03-01T07:56:46.327Z,64.60
2023-03-01T07:59:13.969Z,64.20
2023-03-01T08:01:41.191Z,63.80
2023-03-01T08:04:10.237Z,63.40
2023-03-01T08:06:38.214Z,62.70
2023-03-01T08:09:05.512Z,62.50
2023-03-01T08:11:32.848Z,61.80
2023-03-01T08:14:00.096Z,61.30
2023-03-01T08:16:27.563Z,59.70
2023-03-01T08:18:57.503Z,60.00
2023-03-01T08:21:26.090Z,59.70
2023-03-01T08:23:53.269Z,58.90
2023-03-01T08:26:21.839Z,57.10
2023-03-01T08:28:50.231Z,56.60
2023-03-01T08:31:19.816Z,56.40
2023-03-01T08:33:52.492Z,55.70
2023-03-01T08:36:20.660Z,54.00
2023-03-01T08:38:49.465Z,54.40
2023-03-01T08:41:16.763Z,54.60
2023-03-01T08:43:44.179Z,53.20
2023-03-01T08:46:12.114Z,50.70
2023-03-01T08:48:40.235Z,50.80
2023-03-01T08:51:11.250Z,49.20
2023-03-01T08:53:38.490Z,49.40
2023-03-01T08:56:07.846Z,49.00
2023-03-01T08:58:35.367Z,47.70
2023-03-01T09:01:08.042Z,47.00
2023-03-01T09:03:35.265Z,47.00
2023-03-01T09:06:04.231Z,47.10
2023-03-01T09:08:32.190Z,45.80
2023-03-01T09:11:01.943Z,43.40
2023-03-01T09:13:33.475Z,42.90
2023-03-01T09:16:03.233Z,43.30
2023-03-01T09:18:30.498Z,42.50
2023-03-01T09:21:02.368Z,42.80
2023-03-01T09:23:29.586Z,42.40
2023-03-01T09:25:56.794Z,42.00
2023-03-01T09:28:29.768Z,41.60
2023-03-01T09:31:00.981Z,41.60
2023-03-01T09:33:29.080Z,41.90
2023-03-01T09:35:59.815Z,38.60
2023-03-01T09:38:27.755Z,38.60
2023-03-01T09:40:55.089Z,37.20
2023-03-01T09:43:26.251Z,37.80
2023-03-01T09:45:56.667Z,37.60
2023-03-01T09:48:28.044Z,38.50
2023-03-01T09:50:57.198Z,35.70
2023-03-01T09:53:28.602Z,36.00
2023-03-01T09:55:59.809Z,34.30
2023-03-01T09:58:37.980Z,36.00
2023-03-01T10:01:21.444Z,36.90
2023-03-01T10:04:21.678Z,36.30
2023-03-01T10:07:03.891Z,37.60
2023-03-01T10:09:35.211Z,36.90
2023-03-01T10:12:05.224Z,36.30
2023-03-01T10:14:37.946Z,35.80
2023-03-01T10:17:10.904Z,35.40
2023-03-01T10:19:41.929Z,34.90
2023-03-01T10:22:15.203Z,33.00
2023-03-01T10:24:43.467Z,35.00
2023-03-01T10:27:17.602Z,34.80
2023-03-01T10:29:51.372Z,33.50
2023-03-01T10:32:19.378Z,32.60
2023-03-01T10:34:48.304Z,32.60
2023-03-01T10:37:17.150Z,31.90
2023-03-01T10:39:58.577Z,31.50
2023-03-01T10:42:29.612Z,33.60
2023-03-01T10:44:57.206Z,31.50
2023-03-01T10:47:26.734Z,31.40
2023-03-01T10:49:58.540Z,31.50
2023-03-01T10:52:29.804Z,32.30
2023-03-01T10:54:58.922Z,29.80
2023-03-01T10:57:37.100Z,30.50
2023-03-01T11:00:25.743Z,30.50
2023-03-01T11:03:11.008Z,31.00
2023-03-01T11:06:02.027Z,29.50
2023-03-01T11:08:35.262Z,30.00
2023-03-01T11:11:14.118Z,29.10
2023-03-01T11:13:53.700Z,30.80
2023-03-01T11:16:43.612Z,30.00
2023-03-01T11:19:20.057Z,29.70
2023-03-01T11:22:00.777Z,27.80
2023-03-01T11:24:34.649Z,27.90
2023-03-01T11:27:05.034Z,27.80
2023-03-01T11:29:47.734Z,28.80
2023-03-01T11:32:16.558Z,29.60
2023-03-01T11:34:48.532Z,29.00
2023-03-01T11:37:27.516Z,28.00
2023-03-01T11:40:00.696Z,28.20
2023-03-01T11:42:38.966Z,28.80
2023-03-01T11:45:10.933Z,27.70
2023-03-01T11:47:52.994Z,28.70
2023-03-01T11:50:30.919Z,28.90
2023-03-01T11:53:13.775Z,28.00
2023-03-01T11:55:54.426Z,26.40
2023-03-01T11:58:38.254Z,27.50
2023-03-01T12:01:20.884Z,27.40
2023-03-01T12:04:32.569Z,29.10
2023-03-01T12:07:05.607Z,28.90
2023-03-01T12:09:42.244Z,26.70
2023-03-01T12:12:42.364Z,27.00
2023-03-01T12:15:40.758Z,28.40
2023-03-01T12:18:21.561Z,28.30
2023-03-01T12:20:59.017Z,29.50
2023-03-01T12:23:49.264Z,28.60
2023-03-01T12:26:23.770Z,28.90
2023-03-01T12:29:07.965Z,28.40
2023-03-01T12:32:19.211Z,28.20
2023-03-01T12:35:20.547Z,28.50
2023-03-01T12:37:57.231Z,28.60
2023-03-01T12:40:39.654Z,27.90
2023-03-01T12:43:22.340Z,28.00
2023-03-01T12:45:58.454Z,28.70
2023-03-01T12:48:36.776Z,26.90
2023-03-01T12:51:08.440Z,27.40
2023-03-01T12:53:37.796Z,26.70
2023-03-01T12:56:08.182Z,25.30
2023-03-01T12:58:49.846Z,27.70
2023-03-01T13:01:27.539Z,28.30
2023-03-01T13:04:19.493Z,28.00
2023-03-01T13:06:56.883Z,27.60
2023-03-01T13:09:31.647Z,26.70
2023-03-01T13:11:58.953Z,27.20
2023-03-01T13:14:46.224Z,28.20
2023-03-01T13:17:34.459Z,28.20
2023-03-01T13:20:01.920Z,26.90
2023-03-01T13:22:33.011Z,27.40
2023-03-01T13:25:14.172Z,26.00
2023-03-01T13:27:41.652Z,26.20
2023-03-01T13:30:41.972Z,27.80
2023-03-01T13:33:35.229Z,27.20
2023-03-01T13:36:02.788Z,27.10
2023-03-01T13:38:46.813Z,27.30
2023-03-01T13:41:15.182Z,25.60
2023-03-01T13:43:44.165Z,26.60
2023-03-01T13:46:19.361Z,26.00
2023-03-01T13:48:50.928Z,27.30
2023-03-01T13:51:24.595Z,26.60
2023-03-01T13:53:53.749Z,26.20
2023-03-01T13:56:25.113Z,27.00
2023-03-01T13:58:55.451Z,25.60
2023-03-01T14:01:27.456Z,24.60
2023-03-01T14:03:54.986Z,25.90
2023-03-01T14:06:24.359Z,26.60
2023-03-01T14:09:00.976Z,26.70
2023-03-01T14:11:54.170Z,25.70
2023-03-01T14:14:37.797Z,24.40
2023-03-01T14:17:18.672Z,25.30
2023-03-01T14:19:48.881Z,25.30
2023-03-01T14:22:23.096Z,25.70
2023-03-01T14:24:52.910Z,25.90
2023-03-01T14:27:20.499Z,25.60
2023-03-01T14:29:56.067Z,25.60
2023-03-01T14:32:27.669Z,26.40
2023-03-01T14:34:55.807Z,26.10
2023-03-01T14:37:26.535Z,23.60
2023-03-01T14:39:54.868Z,24.50
2023-03-01T14:42:24.151Z,24.90
2023-03-01T14:44:53.581Z,25.60
2023-03-01T14:47:29.124Z,26.40
2023-03-01T14:50:00.173Z,26.30
2023-03-01T14:52:36.898Z,26.70
2023-03-01T14:55:07.943Z,27.30
2023-03-01T14:57:35.169Z,27.10
2023-03-01T15:00:07.123Z,27.20
2023-03-01T15:02:36.233Z,26.70
2023-03-01T15:05:08.971Z,27.20
2023-03-01T15:07:39.582Z,27.90
2023-03-01T15:10:14.348Z,27.10
2023-03-01T15:12:42.549Z,27.50
2023-03-01T15:15:36.902Z,26.80
2023-03-01T15:18:15.442Z,27.00
2023-03-01T15:20:43.081Z,27.60
2023-03-01T15:23:21.394Z,27.70
2023-03-01T15:25:57.126Z,28.10
2023-03-01T15:28:27.071Z,28.70
2023-03-01T15:30:57.669Z,27.60
2023-03-01T15:33:47.989Z,28.30
2023-03-01T15:36:34.213Z,29.10
2023-03-01T15:39:02.306Z,29.70
2023-03-01T15:41:32.063Z,28.80
2023-03-01T15:44:00.340Z,28.50
2023-03-01T15:46:31.124Z,28.90
2023-03-01T15:49:03.738Z,28.80
2023-03-01T15:51:34.276Z,29.00
2023-03-01T15:54:05.924Z,29.10
2023-03-01T15:56:33.399Z,30.60
2023-03-01T15:59:03.177Z,29.90
2023-03-01T16:01:30.544Z,29.60
2023-03-01T16:03:59.136Z,30.20
2023-03-01T16:06:27.708Z,32.00
2023-03-01T16:08:54.918Z,32.40
2023-03-01T16:11:22.363Z,31.30
2023-03-01T16:13:50.687Z,32.10
2023-03-01T16:16:18.182Z,32.50
2023-03-01T16:18:46.637Z,32.90
2023-03-01T16:21:21.837Z,32.20
2023-03-01T16:23:50.675Z,33.60
2023-03-01T16:26:21.371Z,33.90
2023-03-01T16:28:48.928Z,33.00
2023-03-01T16:31:20.110Z,33.20
2023-03-01T16:33:50.556Z,34.00
2023-03-01T16:36:20.415Z,34.10
2023-03-01T16:38:49.221Z,35.20
2023-03-01T16:41:23.587Z,35.40
2023-03-01T16:43:51.721Z,35.60
2023-03-01T16:46:21.594Z,35.70
2023-03-01T16:48:50.209Z,35.80
2023-03-01T16:51:18.253Z,36.00
2023-03-01T16:53:47.491Z,36.50
2023-03-01T16:56:15.928Z,36.60
2023-03-01T16:58:44.657Z,36.40
2023-03-01T17:01:13.521Z,36.20
2023-03-01T17:03:40.890Z,36.10
2023-03-01T17:06:10.070Z,36.70
2023-03-01T17:08:38.236Z,36.80
2023-03-01T17:11:07.424Z,37.20
2023-03-01T17:13:36.525Z,37.70
2023-03-01T17:16:06.567Z,38.30
2023-03-01T17:18:34.846Z,38.40
2023-03-01T17:21:02.888Z,38.30
2023-03-01T17:23:31.666Z,38.30
2023-03-01T17:25:59.554Z,38.40
2023-03-01T17:28:32.616Z,38.70
2023-03-01T17:31:02.224Z,39.00
2023-03-01T17:33:31.536Z,39.50
2023-03-01T17:35:59.947Z,39.80
2023-03-01T17:38:27.891Z,40.00
2023-03-01T17:40:55.639Z,40.30
2023-03-01T17:43:23.298Z,40.60
2023-03-01T17:45:52.483Z,40.50
2023-03-01T17:48:22.153Z,40.80
2023-03-01T17:51:49.266Z,41.00
2023-03-01T17:54:18.058Z,41.00
2023-03-01T17:56:46.334Z,41.30
2023-03-01T17:59:14.255Z,41.50
2023-03-01T18:01:42.843Z,41.90
2023-03-01T18:04:10.418Z,42.20
2023-03-01T18:06:38.028Z,42.40
2023-03-01T18:09:05.443Z,42.40
2023-03-01T18:11:36.579Z,42.60
2023-03-01T18:14:04.706Z,42.60
2023-03-01T18:16:34.104Z,43.20
2023-03-01T18:19:03.894Z,43.00
2023-03-01T18:21:31.637Z,43.00
2023-03-01T18:24:02.238Z,43.10
2023-03-01T18:26:30.257Z,43.10
2023-03-01T18:29:01.233Z,43.40
2023-03-01T18:31:33.166Z,43.10
2023-03-01T18:34:03.501Z,43.50
2023-03-01T18:36:33.167Z,43.80
2023-03-01T18:39:03.302Z,43.70
2023-03-01T18:41:32.868Z,43.70
2023-03-01T18:44:02.760Z,44.00
2023-03-01T18:46:30.792Z,44.00
2023-03-01T18:48:58.970Z,44.10
2023-03-01T18:51:28.281Z,44.40
2023-03-01T18:53:58.569Z,44.50
2023-03-01T18:56:26.066Z,44.70
2023-03-01T18:58:53.488Z,45.10
2023-03-01T19:01:24.303Z,45.10
2023-03-01T19:03:54.267Z,45.50
2023-03-01T19:06:22.012Z,45.70
2023-03-01T19:08:52.419Z,45.90
2023-03-01T19:11:19.861Z,46.00
2023-03-01T19:13:48.483Z,46.00
2023-03-01T19:16:18.416Z,46.00
2023-03-01T19:18:50.409Z,46.40
2023-03-01T19:21:20.481Z,46.50
2023-03-01T19:23:49.028Z,46.70
2023-03-01T19:26:18.285Z,47.00
2023-03-01T19:28:45.766Z,46.90
2023-03-01T19:31:15.221Z,47.30
2023-03-01T19:33:43.100Z,47.30
2023-03-01T19:36:13.590Z,47.60
2023-03-01T19:38:42.678Z,47.90
2023-03-01T19:41:14.584Z,48.00
2023-03-01T19:43:42.965Z,48.10
2023-03-01T19:46:11.421Z,48.10
2023-03-01T19:48:41.923Z,48.50
2023-03-01T19:51:11.640Z,48.60
2023-03-01T19:53:40.479Z,48.70
2023-03-01T19:56:09.268Z,48.60
2023-03-01T19:58:37.903Z,48.70
2023-03-01T20:01:05.284Z,48.90
2023-03-01T20:03:34.989Z,49.30
2023-03-01T20:06:09.589Z,49.30
2023-03-01T20:08:38.480Z,49.40
2023-03-01T20:11:08.551Z,49.40
2023-03-01T20:13:36.400Z,49.60
2023-03-01T20:16:05.098Z,49.70
2023-03-01T20:18:32.841Z,49.70
2023-03-01T20:21:00.626Z,49.50
2023-03-01T20:23:28.399Z,49.40
2023-03-01T20:26:04.654Z,49.50
2023-03-01T20:28:32.144Z,50.20
2023-03-01T20:31:12.466Z,49.70
2023-03-01T20:33:40.211Z,50.10
2023-03-01T20:36:16.479Z,50.20
2023-03-01T20:38:47.966Z,50.60
2023-03-01T20:41:44.552Z,50.60
2023-03-01T20:44:18.557Z,50.60
2023-03-01T20:47:09.168Z,50.90
2023-03-01T20:50:15.953Z,50.80
2023-03-01T20:52:49.360Z,51.00
2023-03-01T20:55:32.824Z,51.30
2023-03-01T20:58:01.690Z,51.40
2023-03-01T21:00:29.531Z,51.50
2023-03-01T21:02:57.075Z,52.00
2023-03-01T21:05:34.278Z,52.00
2023-03-01T21:08:02.947Z,52.00
2023-03-01T21:10:30.661Z,51.90
2023-03-01T21:13:02.839Z,52.40
2023-03-01T21:15:30.310Z,52.50
2023-03-01T21:18:12.737Z,52.90
2023-03-01T21:20:42.760Z,52.90
2023-03-01T21:32:17.794Z,53.90
2023-03-01T21:34:45.718Z,54.30
2023-03-01T21:37:13.265Z,54.80
2023-03-01T21:39:42.008Z,55.20
2023-03-01T21:45:42.099Z,56.20
2023-03-01T21:48:16.565Z,56.20
2023-03-01T21:51:04.591Z,56.10
2023-03-01T21:53:35.487Z,56.20
2023-03-01T21:56:03.367Z,56.60
2023-03-01T21:58:31.869Z,56.50
2023-03-01T22:01:18.253Z,56.40
2023-03-01T22:04:05.905Z,56.70
2023-03-01T22:06:43.447Z,57.10
2023-03-01T22:09:47.094Z,57.10
2023-03-01T22:12:20.419Z,57.60
2023-03-01T22:14:47.879Z,58.10
2023-03-01T22:17:38.234Z,58.30
2023-03-01T22:20:36.194Z,58.80
2023-03-01T22:23:32.082Z,58.60
2023-03-01T22:30:31.072Z,59.40
2023-03-01T22:33:01.289Z,59.00
2023-03-01T22:35:32.952Z,59.20
2023-03-01T22:39:05.300Z,59.50
2023-03-01T22:58:04.544Z,58.50
2023-03-01T23:01:41.748Z,58.40
2023-03-01T23:14:47.695Z,59.20
2023-03-01T23:17:15.716Z,59.40
2023-03-01T23:20:14.663Z,59.80
2023-03-01T23:23:36.302Z,59.80
2023-03-01T23:26:53.561Z,59.80
2023-03-01T23:32:16.764Z,60.10
